Time;durP1;ratioP1;P1;durP2;ratioP2;P2;SDS_P1;SDS_P2;PMS_P1;PMS_P2;Temp;Humidity;BMP_temperature;BMP_pressure;BME280_temperature;BME280_humidity;BME280_pressure;Samples;Min_cycle;Max_cycle;Signal;HPM_P1;HPM_P2
2021/10/20 00:01:33;;;;;;;;;;;8.50;99.90;;;;;;4974947;28;19973;-74
2021/10/20 00:04:05;;;;;;;;;;;8.50;99.90;;;;;;4990762;28;19976;-73
2021/10/20 00:06:32;;;;;;;;;;;8.40;99.90;;;;;;4992403;28;19926;-73
2021/10/20 00:08:59;;;;;;;;;;;8.40;99.90;;;;;;4993656;28;19926;-73
2021/10/20 00:11:31;;;;;;;;;;;8.40;99.90;;;;;;4977060;28;19933;-74
2021/10/20 00:13:58;;;;;;;;;;;8.40;99.90;;;;;;4993669;28;19933;-74
2021/10/20 00:16:29;;;;;;;;;;;8.30;99.90;;;;;;4992384;28;19926;-73
2021/10/20 00:19:01;;;;;;;;;;;8.20;99.90;;;;;;4976983;28;19926;-73
2021/10/20 00:21:29;;;;;;;;;;;8.20;99.90;;;;;;4993647;28;19934;-73
2021/10/20 00:24:01;;;;;;;;;;;8.20;99.90;;;;;;4976879;28;19926;-74
2021/10/20 00:26:33;;;;;;;;;;;8.20;99.90;;;;;;4976868;28;19926;-73
2021/10/20 00:29:05;;;;;;;;;;;8.20;99.90;;;;;;4976847;28;20381;-73
2021/10/20 00:31:32;;;;;;;;;;;8.20;99.90;;;;;;4992154;28;20371;-73
2021/10/20 00:33:58;;;;;;;;;;;8.20;99.90;;;;;;4993200;28;19925;-73
2021/10/20 00:36:30;;;;;;;;;;;8.10;99.90;;;;;;4991928;28;19929;-73
2021/10/20 00:39:02;;;;;;;;;;;8.10;99.90;;;;;;4992104;28;19926;-73
2021/10/20 00:41:29;;;;;;;;;;;8.00;99.90;;;;;;4991932;28;19926;-73
2021/10/20 00:43:56;;;;;;;;;;;8.00;99.90;;;;;;4991838;28;19926;-74
2021/10/20 00:46:28;;;;;;;;;;;8.00;99.90;;;;;;4991686;28;19933;-74
2021/10/20 00:49:00;;;;;;;;;;;8.00;99.90;;;;;;4991811;28;19926;-74
2021/10/20 00:51:27;;;;;;;;;;;8.00;99.90;;;;;;4991776;28;19933;-74
2021/10/20 00:53:55;;;;;;;;;;;8.00;99.90;;;;;;4975502;28;19937;-73
2021/10/20 00:56:22;;;;;;;;;;;8.00;99.90;;;;;;4975270;28;19932;-74
2021/10/20 00:58:49;;;;;;;;;;;8.10;99.90;;;;;;4975552;28;19998;-73
2021/10/20 01:01:16;;;;;;;;;;;8.00;99.90;;;;;;4975050;28;19989;-73
2021/10/20 01:03:44;;;;;;;;;;;8.00;99.90;;;;;;4991015;28;19926;-74
2021/10/20 01:06:11;;;;;;;;;;;8.00;99.90;;;;;;4991676;28;19998;-74
2021/10/20 01:08:43;;;;;;;;;;;7.90;99.90;;;;;;4975555;28;19930;-73
2021/10/20 01:11:15;;;;;;;;;;;7.90;99.90;;;;;;4991060;28;19980;-73
2021/10/20 01:13:47;;;;;;;;;;;7.90;99.90;;;;;;4992078;28;19972;-73
2021/10/20 01:16:14;;;;;;;;;;;7.90;99.90;;;;;;4991609;28;19930;-73
2021/10/20 01:18:45;;;;;;;;;;;8.00;99.90;;;;;;4975479;28;19976;-73
2021/10/20 01:21:19;;;;;;;;;;;8.00;99.90;;;;;;4991405;28;19941;-73
2021/10/20 01:23:51;;;;;;;;;;;8.00;99.90;;;;;;4990709;28;20292;-73
2021/10/20 01:26:18;;;;;;;;;;;8.00;99.90;;;;;;4991601;28;20020;-73
2021/10/20 01:28:50;;;;;;;;;;;8.00;99.90;;;;;;4975842;28;20000;-74
2021/10/20 01:31:22;;;;;;;;;;;8.00;99.90;;;;;;4975647;28;20381;-74
2021/10/20 01:33:49;;;;;;;;;;;8.00;99.90;;;;;;4990944;28;19932;-73
2021/10/20 01:36:16;;;;;;;;;;;7.90;99.90;;;;;;4974721;28;20296;-73
2021/10/20 01:38:43;;;;;;;;;;;7.90;99.90;;;;;;4973614;28;19925;-74
2021/10/20 01:41:15;;;;;;;;;;;7.80;99.90;;;;;;4991786;28;20361;-73
2021/10/20 01:43:43;;;;;;;;;;;7.80;99.90;;;;;;4991559;28;19936;-74
2021/10/20 01:46:10;;;;;;;;;;;7.80;99.90;;;;;;4989900;28;19972;-74
2021/10/20 01:48:37;;;;;;;;;;;7.70;99.90;;;;;;4990500;28;19953;-73
2021/10/20 01:51:04;;;;;;;;;;;7.60;99.90;;;;;;4990751;28;19984;-73
2021/10/20 01:53:35;;;;;;;;;;;7.60;99.90;;;;;;4990963;28;19937;-73
2021/10/20 01:56:08;;;;;;;;;;;7.50;99.90;;;;;;4991738;28;19933;-73
2021/10/20 01:58:35;;;;;;;;;;;7.50;99.90;;;;;;4991000;28;19952;-74
2021/10/20 02:01:08;;;;;;;;;;;7.50;99.90;;;;;;4990859;28;19965;-73
2021/10/20 02:03:40;;;;;;;;;;;7.50;99.90;;;;;;4991061;28;20307;-74
2021/10/20 02:06:08;;;;;;;;;;;7.50;99.90;;;;;;4990467;28;19933;-73
2021/10/20 02:08:35;;;;;;;;;;;7.40;99.90;;;;;;4990855;28;20478;-73
2021/10/20 02:11:02;;;;;;;;;;;7.40;99.90;;;;;;4974689;28;19925;-73
2021/10/20 02:13:34;;;;;;;;;;;7.40;99.90;;;;;;4991998;28;19930;-73
2021/10/20 02:16:07;;;;;;;;;;;7.40;99.90;;;;;;4991410;28;19929;-73
2021/10/20 02:18:34;;;;;;;;;;;7.40;99.90;;;;;;4974850;28;19926;-73
2021/10/20 02:21:02;;;;;;;;;;;7.40;99.90;;;;;;4990802;28;19933;-74
2021/10/20 02:23:29;;;;;;;;;;;7.30;99.90;;;;;;4974629;28;19930;-73
2021/10/20 02:25:56;;;;;;;;;;;7.30;99.90;;;;;;4991416;28;19930;-74
2021/10/20 02:28:23;;;;;;;;;;;7.30;99.90;;;;;;4992045;28;19980;-73
2021/10/20 02:30:50;;;;;;;;;;;7.20;99.90;;;;;;4990663;28;19933;-73
2021/10/20 02:33:20;;;;;;;;;;;7.20;99.90;;;;;;4994167;28;19925;-74
2021/10/20 02:35:52;;;;;;;;;;;7.20;99.90;;;;;;4994036;28;19930;-73
2021/10/20 02:38:24;;;;;;;;;;;7.10;99.90;;;;;;4995741;28;19981;-73
2021/10/20 02:40:51;;;;;;;;;;;7.10;99.90;;;;;;4994259;28;19925;-74
2021/10/20 02:43:18;;;;;;;;;;;7.10;99.90;;;;;;4994122;28;19932;-73
2021/10/20 02:45:49;;;;;;;;;;;7.00;99.90;;;;;;4993668;28;19925;-74
2021/10/20 02:48:21;;;;;;;;;;;7.00;99.90;;;;;;4994247;28;19933;-73
2021/10/20 02:50:53;;;;;;;;;;;7.00;99.90;;;;;;4995400;28;19933;-74
2021/10/20 02:53:25;;;;;;;;;;;7.00;99.90;;;;;;4995202;28;19934;-74
2021/10/20 02:55:51;;;;;;;;;;;7.00;99.90;;;;;;4993662;28;20315;-73
2021/10/20 02:58:19;;;;;;;;;;;7.00;99.90;;;;;;4993912;28;19926;-73
2021/10/20 03:00:50;;;;;;;;;;;7.00;99.90;;;;;;4993782;28;19930;-73
2021/10/20 03:03:22;;;;;;;;;;;7.00;99.90;;;;;;4993727;28;19926;-73
2021/10/20 03:05:49;;;;;;;;;;;7.00;99.90;;;;;;4993386;28;19926;-73
2021/10/20 03:08:16;;;;;;;;;;;6.90;99.90;;;;;;4995068;28;19932;-73
2021/10/20 03:10:47;;;;;;;;;;;7.00;99.90;;;;;;4995018;28;20452;-73
2021/10/20 03:13:14;;;;;;;;;;;6.90;99.90;;;;;;4993352;28;19926;-73
2021/10/20 03:15:41;;;;;;;;;;;7.00;99.90;;;;;;4991823;28;19933;-73
2021/10/20 03:18:13;;;;;;;;;;;7.00;99.90;;;;;;4977390;28;19925;-73
2021/10/20 03:20:45;;;;;;;;;;;7.10;99.90;;;;;;4994025;28;19925;-74
2021/10/20 03:23:16;;;;;;;;;;;7.10;99.90;;;;;;4993201;28;19929;-74
2021/10/20 03:25:48;;;;;;;;;;;7.10;99.90;;;;;;4992823;28;20375;-73
2021/10/20 03:28:20;;;;;;;;;;;7.10;99.90;;;;;;4977644;28;19933;-74
2021/10/20 03:30:47;;;;;;;;;;;7.10;99.90;;;;;;4994344;28;20342;-73
2021/10/20 03:33:14;;;;;;;;;;;7.10;99.90;;;;;;4992969;28;19932;-74
2021/10/20 03:35:46;;;;;;;;;;;7.30;99.90;;;;;;4984063;28;19981;-73
2021/10/20 03:38:17;;;;;;;;;;;7.50;99.90;;;;;;4994073;28;19937;-73
2021/10/20 03:40:44;;;;;;;;;;;7.80;99.90;;;;;;4994483;28;19944;-74
2021/10/20 03:43:11;;;;;;;;;;;8.00;99.90;;;;;;4975750;28;19926;-73
2021/10/20 03:45:38;;;;;;;;;;;8.20;99.90;;;;;;4993829;28;19933;-73
2021/10/20 03:48:09;;;;;;;;;;;8.30;99.90;;;;;;4992980;28;19929;-73
2021/10/20 03:50:36;;;;;;;;;;;8.40;99.90;;;;;;4992702;28;19930;-73
2021/10/20 03:53:08;;;;;;;;;;;8.50;99.90;;;;;;4993558;28;19933;-73
2021/10/20 03:55:40;;;;;;;;;;;8.60;99.90;;;;;;4991295;28;19926;-73
2021/10/20 03:58:12;;;;;;;;;;;8.50;99.90;;;;;;4976787;28;19932;-73
2021/10/20 04:00:38;;;;;;;;;;;8.60;99.90;;;;;;4992297;28;19926;-74
2021/10/20 04:03:10;;;;;;;;;;;8.60;99.90;;;;;;4992271;28;19926;-73
2021/10/20 04:05:42;;;;;;;;;;;8.50;99.90;;;;;;4976284;28;19926;-74
2021/10/20 04:08:14;;;;;;;;;;;8.30;99.90;;;;;;4976858;28;19929;-75
2021/10/20 04:10:41;;;;;;;;;;;8.10;99.90;;;;;;4993149;28;19933;-73
2021/10/20 04:13:12;;;;;;;;;;;7.90;99.90;;;;;;4990368;28;20399;-73
2021/10/20 04:15:44;;;;;;;;;;;7.70;99.90;;;;;;4991669;28;19972;-72
2021/10/20 04:18:11;;;;;;;;;;;7.60;99.90;;;;;;4980120;28;20540;-73
2021/10/20 04:20:43;;;;;;;;;;;7.60;99.90;;;;;;4976223;28;20289;-74
2021/10/20 04:23:10;;;;;;;;;;;7.50;99.90;;;;;;4975741;28;19926;-73
2021/10/20 04:25:42;;;;;;;;;;;7.40;99.90;;;;;;4991340;28;19933;-73
2021/10/20 04:28:09;;;;;;;;;;;7.40;99.90;;;;;;4991429;28;19929;-73
2021/10/20 04:30:36;;;;;;;;;;;7.30;99.90;;;;;;4975288;28;20112;-72
2021/10/20 04:33:08;;;;;;;;;;;7.30;99.90;;;;;;4992430;28;19926;-73
2021/10/20 04:35:40;;;;;;;;;;;7.20;99.90;;;;;;4991202;28;19933;-73
2021/10/20 04:38:06;;;;;;;;;;;7.00;99.90;;;;;;4992001;28;19930;-73
2021/10/20 04:40:34;;;;;;;;;;;7.00;99.90;;;;;;4975416;28;20388;-73
2021/10/20 04:43:05;;;;;;;;;;;6.90;99.90;;;;;;4976141;28;19933;-73
2021/10/20 04:45:33;;;;;;;;;;;6.90;99.90;;;;;;4975190;28;19926;-73
2021/10/20 04:48:05;;;;;;;;;;;6.90;99.90;;;;;;4992500;28;19926;-73
2021/10/20 04:50:31;;;;;;;;;;;6.90;99.90;;;;;;4991414;28;19938;-73
2021/10/20 04:53:03;;;;;;;;;;;6.90;99.90;;;;;;4991307;28;19972;-72
2021/10/20 04:55:30;;;;;;;;;;;6.90;99.90;;;;;;4989794;28;19926;-73
2021/10/20 04:58:07;;;;;;;;;;;6.90;99.90;;;;;;4992332;28;19969;-73
2021/10/20 05:00:34;;;;;;;;;;;6.80;99.90;;;;;;4975483;28;19926;-72
2021/10/20 05:03:06;;;;;;;;;;;6.80;99.90;;;;;;4975951;28;20371;-72
2021/10/20 05:05:33;;;;;;;;;;;6.80;99.90;;;;;;4991090;28;19933;-74
2021/10/20 05:08:00;;;;;;;;;;;6.80;99.90;;;;;;4992525;28;19926;-72
2021/10/20 05:10:32;;;;;;;;;;;6.80;99.90;;;;;;4991309;28;20053;-73
2021/10/20 05:13:03;;;;;;;;;;;6.80;99.90;;;;;;4991583;28;19992;-72
2021/10/20 05:15:30;;;;;;;;;;;6.80;99.90;;;;;;4991135;28;19926;-73
2021/10/20 05:17:57;;;;;;;;;;;6.80;99.90;;;;;;4975331;28;19930;-73
2021/10/20 05:20:24;;;;;;;;;;;6.80;99.90;;;;;;4974908;28;19976;-74
2021/10/20 05:22:56;;;;;;;;;;;6.80;99.90;;;;;;4975714;28;20547;-72
2021/10/20 05:25:23;;;;;;;;;;;6.80;99.90;;;;;;4974515;28;19926;-73
2021/10/20 05:27:55;;;;;;;;;;;6.90;99.90;;;;;;4991302;28;20416;-74
2021/10/20 05:30:22;;;;;;;;;;;6.90;99.90;;;;;;4992724;28;19932;-73
2021/10/20 05:32:49;;;;;;;;;;;6.90;99.90;;;;;;4992028;28;20132;-74
2021/10/20 05:35:20;;;;;;;;;;;7.00;99.90;;;;;;4975295;28;19926;-73
2021/10/20 05:37:48;;;;;;;;;;;7.00;99.90;;;;;;4992106;28;19930;-74
2021/10/20 05:40:15;;;;;;;;;;;7.00;99.90;;;;;;4974676;28;19926;-73
2021/10/20 05:42:42;;;;;;;;;;;7.10;99.90;;;;;;4990700;28;19938;-74
2021/10/20 05:45:14;;;;;;;;;;;7.20;99.90;;;;;;4975397;28;20526;-73
2021/10/20 05:47:41;;;;;;;;;;;7.20;99.90;;;;;;4992137;28;19926;-72
2021/10/20 05:50:08;;;;;;;;;;;7.20;99.90;;;;;;4974731;28;19926;-73
2021/10/20 05:52:35;;;;;;;;;;;7.20;99.90;;;;;;4991814;28;20331;-73
2021/10/20 05:55:02;;;;;;;;;;;7.10;99.90;;;;;;4974008;28;19949;-73
2021/10/20 05:57:29;;;;;;;;;;;7.10;99.90;;;;;;4990755;28;20335;-73
2021/10/20 06:00:01;;;;;;;;;;;7.00;99.90;;;;;;4991809;28;19925;-74
2021/10/20 06:02:37;;;;;;;;;;;7.10;99.90;;;;;;4991844;28;19930;-73
2021/10/20 06:05:04;;;;;;;;;;;7.10;99.90;;;;;;4990177;28;19926;-72
2021/10/20 06:07:38;;;;;;;;;;;7.10;99.90;;;;;;4977718;28;19932;-73
2021/10/20 06:10:05;;;;;;;;;;;7.10;99.90;;;;;;4994727;28;19980;-73
2021/10/20 06:12:32;;;;;;;;;;;7.30;99.90;;;;;;4994400;28;19957;-73
2021/10/20 06:15:06;;;;;;;;;;;7.40;99.90;;;;;;4994147;28;19933;-72
2021/10/20 06:17:38;;;;;;;;;;;7.60;99.90;;;;;;4978056;28;19945;-74
2021/10/20 06:20:06;;;;;;;;;;;7.70;99.90;;;;;;4978218;28;19977;-73
2021/10/20 06:22:40;;;;;;;;;;;7.80;99.90;;;;;;4994488;28;19981;-73
2021/10/20 06:25:08;;;;;;;;;;;7.80;99.90;;;;;;4994990;28;19930;-73
2021/10/20 06:27:40;;;;;;;;;;;7.80;99.90;;;;;;4979033;28;20339;-73
2021/10/20 06:30:07;;;;;;;;;;;7.80;99.90;;;;;;4978171;28;19937;-73
2021/10/20 06:32:34;;;;;;;;;;;7.70;99.90;;;;;;4994109;28;19926;-73
2021/10/20 06:35:06;;;;;;;;;;;7.60;99.90;;;;;;4993701;28;19926;-73
2021/10/20 06:37:38;;;;;;;;;;;7.50;99.90;;;;;;4994251;28;19934;-72
2021/10/20 06:40:10;;;;;;;;;;;7.50;99.90;;;;;;4994184;28;19925;-73
2021/10/20 06:42:37;;;;;;;;;;;7.40;99.90;;;;;;4977879;28;19930;-72
2021/10/20 06:45:04;;;;;;;;;;;7.40;99.90;;;;;;4994778;28;19957;-74
2021/10/20 06:47:31;;;;;;;;;;;7.40;99.90;;;;;;4994015;28;19925;-73
2021/10/20 06:50:06;;;;;;;;;;;7.30;99.90;;;;;;4993861;28;19965;-73
2021/10/20 06:52:37;;;;;;;;;;;7.30;99.90;;;;;;4978406;28;19934;-73
2021/10/20 06:55:04;;;;;;;;;;;7.40;99.90;;;;;;4993299;28;19988;-73
2021/10/20 06:57:31;;;;;;;;;;;7.40;99.90;;;;;;4977470;28;20308;-73
2021/10/20 07:00:04;;;;;;;;;;;7.40;99.90;;;;;;4995038;28;19933;-73
2021/10/20 07:02:36;;;;;;;;;;;7.40;99.90;;;;;;4993577;28;19965;-73
2021/10/20 07:05:08;;;;;;;;;;;7.50;99.90;;;;;;4993378;28;19937;-73
2021/10/20 07:07:35;;;;;;;;;;;7.50;99.90;;;;;;4977546;28;19925;-75
2021/10/20 07:10:02;;;;;;;;;;;7.60;99.90;;;;;;4977694;28;19932;-74
2021/10/20 07:12:35;;;;;;;;;;;7.60;99.90;;;;;;4993868;28;19926;-74
2021/10/20 07:15:02;;;;;;;;;;;7.70;99.90;;;;;;4976888;28;20028;-73
2021/10/20 07:17:34;;;;;;;;;;;7.80;99.90;;;;;;4992521;28;19933;-73
2021/10/20 07:20:01;;;;;;;;;;;7.90;99.90;;;;;;4993424;28;20385;-73
2021/10/20 07:22:28;;;;;;;;;;;8.00;99.90;;;;;;4994298;28;19937;-74
2021/10/20 07:24:59;;;;;;;;;;;8.20;99.90;;;;;;4977539;28;19932;-74
2021/10/20 07:27:26;;;;;;;;;;;8.60;99.90;;;;;;4994532;28;20435;-74
2021/10/20 07:29:58;;;;;;;;;;;9.40;99.90;;;;;;4993040;28;19949;-74
2021/10/20 07:32:30;;;;;;;;;;;10.00;99.90;;;;;;4994330;28;20339;-74
2021/10/20 07:35:02;;;;;;;;;;;10.70;99.90;;;;;;4994021;28;19972;-74
2021/10/20 07:37:37;;;;;;;;;;;11.30;99.90;;;;;;4992993;28;19941;-73
2021/10/20 07:40:05;;;;;;;;;;;11.60;99.90;;;;;;4992886;28;19925;-74
2021/10/20 07:42:33;;;;;;;;;;;11.80;99.90;;;;;;4994245;28;19930;-73
2021/10/20 07:45:07;;;;;;;;;;;12.00;99.90;;;;;;4992734;28;19929;-74
2021/10/20 07:47:39;;;;;;;;;;;12.20;99.90;;;;;;4993130;28;20396;-73
2021/10/20 07:50:07;;;;;;;;;;;12.30;99.90;;;;;;4992998;28;19940;-74
2021/10/20 07:52:40;;;;;;;;;;;12.40;99.90;;;;;;4992530;28;20216;-74
2021/10/20 07:55:11;;;;;;;;;;;12.50;99.90;;;;;;4992358;28;19933;-74
2021/10/20 07:57:38;;;;;;;;;;;12.50;99.90;;;;;;4976505;28;19972;-74
2021/10/20 08:00:10;;;;;;;;;;;12.60;99.90;;;;;;4992491;28;20388;-73
2021/10/20 08:02:37;;;;;;;;;;;12.70;99.90;;;;;;4976450;28;19926;-74
2021/10/20 08:05:05;;;;;;;;;;;12.80;99.90;;;;;;4993323;28;20410;-74
2021/10/20 08:07:43;;;;;;;;;;;12.90;99.90;;;;;;4993670;28;19933;-74
2021/10/20 08:10:20;;;;;;;;;;;13.00;99.90;;;;;;4994880;28;19932;-74
2021/10/20 08:12:47;;;;;;;;;;;13.20;99.90;;;;;;4992440;28;20465;-74
2021/10/20 08:15:19;;;;;;;;;;;13.40;99.90;;;;;;4976225;28;19981;-73
2021/10/20 08:17:46;;;;;;;;;;;13.50;99.90;;;;;;4975486;28;19930;-74
2021/10/20 08:20:19;;;;;;;;;;;13.50;99.90;;;;;;4992796;28;20426;-74
2021/10/20 08:22:51;;;;;;;;;;;13.70;99.90;;;;;;4976537;28;19933;-73
2021/10/20 08:25:22;;;;;;;;;;;13.80;99.90;;;;;;4992904;28;19932;-74
2021/10/20 08:27:49;;;;;;;;;;;13.90;99.90;;;;;;4993145;28;19926;-74
2021/10/20 08:30:19;;;;;;;;;;;14.00;99.90;;;;;;4991704;28;20028;-74
2021/10/20 08:32:48;;;;;;;;;;;14.10;99.90;;;;;;4992483;28;20139;-73
2021/10/20 08:35:20;;;;;;;;;;;14.20;99.90;;;;;;4991426;28;20365;-74
2021/10/20 08:37:55;;;;;;;;;;;14.40;99.90;;;;;;4991724;28;19976;-74
2021/10/20 08:40:31;;;;;;;;;;;14.40;99.90;;;;;;4991643;28;19932;-74
2021/10/20 08:42:58;;;;;;;;;;;14.50;99.90;;;;;;4992909;28;19932;-74
2021/10/20 08:45:25;;;;;;;;;;;14.50;99.90;;;;;;4975249;28;20359;-74
2021/10/20 08:47:58;;;;;;;;;;;14.60;99.90;;;;;;4975940;28;19925;-74
2021/10/20 08:50:31;;;;;;;;;;;14.60;99.90;;;;;;4992796;28;19926;-74
2021/10/20 08:53:03;;;;;;;;;;;14.70;99.90;;;;;;4975843;28;19936;-74
2021/10/20 08:55:35;;;;;;;;;;;14.80;99.90;;;;;;4992403;28;19932;-74
2021/10/20 08:58:07;;;;;;;;;;;14.90;99.90;;;;;;4991621;28;20001;-73
2021/10/20 09:00:39;;;;;;;;;;;14.90;99.90;;;;;;4975809;28;19930;-73
2021/10/20 09:03:12;;;;;;;;;;;15.00;99.90;;;;;;4991425;28;19926;-74
2021/10/20 09:05:44;;;;;;;;;;;15.00;99.90;;;;;;4975510;28;19926;-74
2021/10/20 09:08:10;;;;;;;;;;;15.10;99.90;;;;;;4991202;28;19926;-74
2021/10/20 09:10:44;;;;;;;;;;;15.10;99.90;;;;;;4991327;28;19926;-74
2021/10/20 09:13:16;;;;;;;;;;;15.20;99.90;;;;;;4992776;28;20331;-74
2021/10/20 09:15:47;;;;;;;;;;;15.30;99.90;;;;;;4988837;28;19984;-74
2021/10/20 09:18:19;;;;;;;;;;;15.30;99.90;;;;;;4990239;28;19968;-74
2021/10/20 09:20:51;;;;;;;;;;;15.40;99.90;;;;;;4998460;28;20355;-73
2021/10/20 09:23:21;;;;;;;;;;;15.40;99.90;;;;;;4991239;28;19932;-74
2021/10/20 09:25:58;;;;;;;;;;;15.60;99.90;;;;;;4990478;28;19926;-75
2021/10/20 09:28:26;;;;;;;;;;;15.70;99.90;;;;;;4990764;28;19933;-74
2021/10/20 09:30:57;;;;;;;;;;;15.80;99.90;;;;;;4991855;28;19972;-74
2021/10/20 09:33:32;;;;;;;;;;;15.90;99.90;;;;;;4991312;28;19930;-74
2021/10/20 09:36:03;;;;;;;;;;;16.00;99.90;;;;;;4989603;28;20016;-74
2021/10/20 09:38:31;;;;;;;;;;;16.10;99.90;;;;;;4990953;28;19926;-74
2021/10/20 09:41:02;;;;;;;;;;;16.20;99.90;;;;;;5009449;28;20024;-74
2021/10/20 09:43:39;;;;;;;;;;;16.30;99.90;;;;;;4994897;28;20012;-74
2021/10/20 09:46:06;;;;;;;;;;;16.40;99.90;;;;;;5009912;28;19925;-74
2021/10/20 09:48:41;;;;;;;;;;;16.50;99.90;;;;;;5010577;28;20388;-74
2021/10/20 09:51:13;;;;;;;;;;;16.60;99.90;;;;;;5010326;28;19926;-74
2021/10/20 09:53:41;;;;;;;;;;;16.70;99.90;;;;;;5010168;28;20023;-75
2021/10/20 09:56:19;;;;;;;;;;;16.70;99.90;;;;;;5009805;28;19930;-74
2021/10/20 09:58:46;;;;;;;;;;;16.80;99.90;;;;;;5011284;28;19925;-74
2021/10/20 10:01:13;;;;;;;;;;;16.90;99.90;;;;;;5009540;28;19926;-74
2021/10/20 10:03:41;;;;;;;;;;;16.90;99.90;;;;;;5009723;28;19968;-74
2021/10/20 10:06:13;;;;;;;;;;;17.00;99.90;;;;;;5010990;28;19984;-74
2021/10/20 10:08:40;;;;;;;;;;;17.00;99.90;;;;;;5010046;28;20347;-74
2021/10/20 10:11:12;;;;;;;;;;;17.10;99.90;;;;;;5011442;28;19925;-74
2021/10/20 10:13:47;;;;;;;;;;;17.20;99.90;;;;;;5010903;28;19971;-74
2021/10/20 10:16:27;;;;;;;;;;;17.20;99.90;;;;;;5009708;28;19929;-74
2021/10/20 10:18:55;;;;;;;;;;;17.30;99.90;;;;;;5010835;28;19926;-74
2021/10/20 10:21:31;;;;;;;;;;;17.40;99.90;;;;;;5010234;28;20028;-74
2021/10/20 10:24:23;;;;;;;;;;;17.40;99.90;;;;;;5011414;28;19925;-74
2021/10/20 10:27:05;;;;;;;;;;;17.50;99.90;;;;;;5010270;28;20315;-74
2021/10/20 10:29:49;;;;;;;;;;;17.60;99.90;;;;;;5010294;28;19926;-73
2021/10/20 10:32:21;;;;;;;;;;;17.70;99.90;;;;;;5010404;28;19932;-74
2021/10/20 10:34:54;;;;;;;;;;;17.80;99.90;;;;;;5009847;28;19980;-74
2021/10/20 10:37:31;;;;;;;;;;;18.00;99.90;;;;;;5010626;28;20438;-74
2021/10/20 10:40:00;;;;;;;;;;;18.20;99.90;;;;;;5010088;28;19925;-73
2021/10/20 10:42:34;;;;;;;;;;;18.30;99.90;;;;;;4993716;28;20273;-74
2021/10/20 10:45:11;;;;;;;;;;;18.40;99.90;;;;;;5009810;28;19932;-74
2021/10/20 10:47:55;;;;;;;;;;;18.50;99.90;;;;;;5009173;28;19933;-74
2021/10/20 10:50:37;;;;;;;;;;;18.50;99.90;;;;;;5010442;28;19932;-73
2021/10/20 10:53:26;;;;;;;;;;;18.40;99.90;;;;;;4995607;28;19933;-73
2021/10/20 10:56:00;;;;;;;;;;;18.40;99.90;;;;;;4993081;28;19926;-74
2021/10/20 10:58:27;;;;;;;;;;;18.40;99.90;;;;;;4993521;28;20319;-73
2021/10/20 11:01:00;;;;;;;;;;;18.40;99.90;;;;;;4993788;28;20384;-74
2021/10/20 11:03:32;;;;;;;;;;;18.50;99.90;;;;;;4995103;28;19925;-74
2021/10/20 11:06:00;;;;;;;;;;;18.50;99.90;;;;;;5012140;28;19926;-74
2021/10/20 11:08:31;;;;;;;;;;;18.50;99.90;;;;;;5013011;28;20334;-74
2021/10/20 11:10:58;;;;;;;;;;;18.50;99.90;;;;;;5011850;28;19932;-74
2021/10/20 11:13:30;;;;;;;;;;;18.60;99.90;;;;;;4997525;28;19925;-74
2021/10/20 11:16:05;;;;;;;;;;;18.70;99.90;;;;;;5012428;28;19926;-73
2021/10/20 11:18:31;;;;;;;;;;;18.70;99.90;;;;;;5012998;28;19933;-74
2021/10/20 11:21:04;;;;;;;;;;;18.60;99.90;;;;;;5012800;28;19926;-74
2021/10/20 11:23:31;;;;;;;;;;;18.60;99.90;;;;;;5014110;28;19926;-74
2021/10/20 11:25:59;;;;;;;;;;;18.50;99.90;;;;;;5013650;28;19933;-74
2021/10/20 11:28:26;;;;;;;;;;;18.50;99.90;;;;;;5012669;28;19925;-74
2021/10/20 11:30:52;;;;;;;;;;;18.60;99.90;;;;;;5013732;28;20003;-74
2021/10/20 11:33:19;;;;;;;;;;;18.60;99.90;;;;;;5013340;28;19929;-74
2021/10/20 11:35:51;;;;;;;;;;;18.60;99.90;;;;;;5011892;28;19932;-73
2021/10/20 11:38:23;;;;;;;;;;;18.60;99.90;;;;;;5012020;28;20380;-73
2021/10/20 11:40:56;;;;;;;;;;;18.60;99.90;;;;;;4997167;28;19925;-74
2021/10/20 11:43:27;;;;;;;;;;;18.70;99.90;;;;;;5012220;28;19929;-74
2021/10/20 11:46:00;;;;;;;;;;;18.70;99.90;;;;;;5003456;28;19926;-74
2021/10/20 11:48:34;;;;;;;;;;;18.70;99.90;;;;;;4993707;28;20312;-73
2021/10/20 11:51:05;;;;;;;;;;;18.80;99.90;;;;;;4992746;28;19964;-73
2021/10/20 11:53:37;;;;;;;;;;;18.80;99.90;;;;;;4990902;28;19932;-74
2021/10/20 11:56:11;;;;;;;;;;;18.70;99.90;;;;;;5004179;28;19944;-74
2021/10/20 11:58:38;;;;;;;;;;;18.70;99.90;;;;;;5011548;28;19925;-74
2021/10/20 12:01:09;;;;;;;;;;;18.70;99.90;;;;;;5012102;28;19929;-74
2021/10/20 12:03:42;;;;;;;;;;;18.60;99.90;;;;;;5007871;28;19933;-74
2021/10/20 12:06:16;;;;;;;;;;;18.60;99.90;;;;;;4992955;28;19936;-74
2021/10/20 12:08:45;;;;;;;;;;;18.40;99.90;;;;;;4998178;28;20331;-74
2021/10/20 12:11:18;;;;;;;;;;;18.40;99.90;;;;;;4993194;28;19926;-74
2021/10/20 12:13:45;;;;;;;;;;;18.40;99.90;;;;;;4975700;28;19933;-73
2021/10/20 12:16:20;;;;;;;;;;;18.30;99.90;;;;;;4991999;28;20408;-73
2021/10/20 12:18:47;;;;;;;;;;;18.30;99.90;;;;;;4991652;28;19932;-74
2021/10/20 12:21:15;;;;;;;;;;;18.30;99.90;;;;;;4991341;28;19976;-74
2021/10/20 12:23:47;;;;;;;;;;;18.20;99.90;;;;;;4992052;28;19932;-73
2021/10/20 12:26:19;;;;;;;;;;;18.20;99.90;;;;;;4991944;28;20289;-74
2021/10/20 12:28:52;;;;;;;;;;;18.20;99.90;;;;;;4991935;28;19932;-74
2021/10/20 12:31:19;;;;;;;;;;;18.20;99.90;;;;;;4992807;28;20067;-73
2021/10/20 12:33:52;;;;;;;;;;;18.20;99.90;;;;;;4992857;28;20395;-74
2021/10/20 12:36:24;;;;;;;;;;;18.20;99.90;;;;;;4990951;28;20380;-73
2021/10/20 12:38:51;;;;;;;;;;;18.10;99.90;;;;;;4991963;28;20025;-73
2021/10/20 12:41:25;;;;;;;;;;;18.10;99.90;;;;;;4991842;28;20297;-73
2021/10/20 12:43:58;;;;;;;;;;;18.10;99.90;;;;;;4992889;28;19926;-74
2021/10/20 12:46:31;;;;;;;;;;;18.20;99.90;;;;;;4992686;28;19933;-73
2021/10/20 12:48:58;;;;;;;;;;;18.20;99.90;;;;;;4991768;28;19932;-74
2021/10/20 12:51:31;;;;;;;;;;;18.20;99.90;;;;;;4991768;28;20385;-73
2021/10/20 12:54:04;;;;;;;;;;;18.20;99.90;;;;;;4992991;28;20403;-74
2021/10/20 12:56:37;;;;;;;;;;;18.10;99.90;;;;;;4992698;28;20424;-73
2021/10/20 12:59:06;;;;;;;;;;;18.10;99.90;;;;;;4991615;28;19925;-74
2021/10/20 13:01:34;;;;;;;;;;;18.00;99.90;;;;;;4991415;28;19925;-73
2021/10/20 13:04:01;;;;;;;;;;;17.90;99.90;;;;;;4991439;28;19930;-74
2021/10/20 13:06:27;;;;;;;;;;;17.90;99.90;;;;;;4991328;28;19961;-74
2021/10/20 13:08:54;;;;;;;;;;;17.80;99.90;;;;;;4991578;28;19988;-74
2021/10/20 13:11:26;;;;;;;;;;;17.80;99.90;;;;;;4992738;28;19941;-74
2021/10/20 13:13:53;;;;;;;;;;;17.80;99.90;;;;;;4991378;28;19930;-73
2021/10/20 13:16:19;;;;;;;;;;;17.80;99.90;;;;;;4990163;28;19930;-73
2021/10/20 13:18:46;;;;;;;;;;;17.80;99.90;;;;;;4991248;28;19972;-74
2021/10/20 13:21:18;;;;;;;;;;;17.80;99.90;;;;;;4976093;28;19932;-74
2021/10/20 13:23:45;;;;;;;;;;;17.80;99.90;;;;;;4991353;28;19932;-73
2021/10/20 13:26:19;;;;;;;;;;;17.80;99.90;;;;;;4975689;28;19980;-74
2021/10/20 13:28:51;;;;;;;;;;;17.70;99.90;;;;;;4991425;28;19926;-74
2021/10/20 13:31:23;;;;;;;;;;;17.70;99.90;;;;;;4991306;28;19976;-74
2021/10/20 13:33:55;;;;;;;;;;;17.70;99.90;;;;;;4991142;28;20512;-74
2021/10/20 13:36:27;;;;;;;;;;;17.80;99.90;;;;;;4990770;28;19930;-74
2021/10/20 13:38:58;;;;;;;;;;;17.80;99.90;;;;;;4991154;28;19926;-74
2021/10/20 13:41:30;;;;;;;;;;;17.90;99.90;;;;;;4991045;28;19934;-74
2021/10/20 13:44:02;;;;;;;;;;;17.90;99.90;;;;;;4992027;28;19933;-74
2021/10/20 13:46:29;;;;;;;;;;;17.90;99.90;;;;;;4990605;28;19926;-75
2021/10/20 13:48:57;;;;;;;;;;;17.80;99.90;;;;;;4989771;28;19933;-75
2021/10/20 13:51:24;;;;;;;;;;;17.80;99.90;;;;;;4989613;28;19932;-73
2021/10/20 13:53:50;;;;;;;;;;;17.80;99.90;;;;;;4990772;28;19937;-74
2021/10/20 13:56:22;;;;;;;;;;;17.80;99.90;;;;;;4990039;28;19925;-74
2021/10/20 13:58:54;;;;;;;;;;;17.70;99.90;;;;;;4990681;28;20388;-74
2021/10/20 14:01:21;;;;;;;;;;;17.80;99.90;;;;;;4990077;28;20387;-73
2021/10/20 14:03:47;;;;;;;;;;;17.80;99.90;;;;;;4990754;28;19932;-74
2021/10/20 14:06:16;;;;;;;;;;;17.80;99.90;;;;;;4991365;28;19926;-74
2021/10/20 14:08:43;;;;;;;;;;;17.80;99.90;;;;;;4991138;28;19926;-73
2021/10/20 14:11:10;;;;;;;;;;;17.90;99.90;;;;;;4990360;28;19933;-75
2021/10/20 14:13:42;;;;;;;;;;;17.90;99.90;;;;;;4973941;28;19933;-74
2021/10/20 14:16:14;;;;;;;;;;;17.90;99.90;;;;;;4988991;28;20273;-74
2021/10/20 14:18:42;;;;;;;;;;;17.90;99.90;;;;;;4990679;28;19973;-74
2021/10/20 14:21:09;;;;;;;;;;;17.90;99.90;;;;;;4989409;28;19984;-74
2021/10/20 14:23:41;;;;;;;;;;;17.80;99.90;;;;;;4986445;28;19984;-73
2021/10/20 14:26:13;;;;;;;;;;;17.70;99.90;;;;;;4989048;28;19926;-73
2021/10/20 14:28:40;;;;;;;;;;;17.70;99.90;;;;;;5016091;28;19929;-73
2021/10/20 14:31:07;;;;;;;;;;;17.60;99.90;;;;;;4995356;28;19952;-74
2021/10/20 14:33:34;;;;;;;;;;;17.60;99.90;;;;;;4977278;28;19934;-73
2021/10/20 14:36:07;;;;;;;;;;;17.50;99.90;;;;;;4993909;28;19953;-74
2021/10/20 14:38:38;;;;;;;;;;;17.50;99.90;;;;;;4991844;28;19929;-74
2021/10/20 14:41:11;;;;;;;;;;;17.50;99.90;;;;;;4976639;28;20423;-74